createdAt,value
2023-03-31T00:00:14.924Z,8.90
2023-03-31T00:02:59.593Z,10.00
2023-03-31T00:05:27.545Z,10.60
2023-03-31T00:08:00.960Z,12.40
2023-03-31T00:10:29.607Z,8.20
2023-03-31T00:12:58.781Z,9.30
2023-03-31T00:15:27.287Z,7.10
2023-03-31T00:17:55.156Z,8.30
2023-03-31T00:20:25.956Z,11.00
2023-03-31T00:22:54.674Z,8.90
2023-03-31T00:25:22.401Z,10.70
2023-03-31T00:27:50.580Z,10.00
2023-03-31T00:30:18.839Z,6.40
2023-03-31T00:32:48.625Z,9.10
2023-03-31T00:35:16.836Z,10.20
2023-03-31T00:37:46.061Z,8.50
2023-03-31T00:40:14.174Z,11.30
2023-03-31T00:42:42.723Z,14.00
2023-03-31T00:45:14.050Z,13.10
2023-03-31T00:47:42.537Z,11.40
2023-03-31T00:50:18.862Z,14.30
2023-03-31T00:52:47.706Z,11.00
2023-03-31T00:55:19.163Z,11.70
2023-03-31T00:57:48.055Z,12.40
2023-03-31T01:00:16.636Z,9.10
2023-03-31T01:02:58.896Z,13.30
2023-03-31T01:05:28.954Z,13.00
2023-03-31T01:07:57.326Z,11.50
2023-03-31T01:10:26.153Z,9.20
2023-03-31T01:12:54.478Z,10.10
2023-03-31T01:15:22.391Z,8.80
2023-03-31T01:17:51.298Z,8.40
2023-03-31T01:20:48.738Z,8.20
2023-03-31T01:23:19.374Z,9.10
2023-03-31T01:26:07.826Z,9.40
2023-03-31T01:28:44.684Z,7.80
2023-03-31T01:31:26.011Z,9.70
2023-03-31T01:34:00.860Z,12.00
2023-03-31T01:36:39.992Z,9.00
2023-03-31T01:39:43.489Z,7.30
2023-03-31T01:42:13.949Z,13.50
2023-03-31T01:44:44.847Z,11.60
2023-03-31T01:47:22.873Z,7.70
2023-03-31T01:50:00.213Z,14.50
2023-03-31T01:52:41.348Z,9.50
2023-03-31T01:55:12.954Z,10.90
2023-03-31T01:57:41.863Z,9.40
2023-03-31T02:00:12.102Z,10.70
2023-03-31T02:02:58.295Z,9.20
2023-03-31T02:05:26.858Z,14.30
2023-03-31T02:08:11.033Z,13.40
2023-03-31T02:10:39.314Z,12.00
2023-03-31T02:13:13.253Z,13.70
2023-03-31T02:15:44.604Z,17.70
2023-03-31T02:18:13.293Z,19.90
2023-03-31T02:20:42.940Z,14.90
2023-03-31T02:23:12.198Z,17.50
2023-03-31T02:25:47.128Z,16.00
2023-03-31T02:28:18.252Z,13.40
2023-03-31T02:30:49.429Z,14.30
2023-03-31T02:33:17.856Z,14.50
2023-03-31T02:35:46.032Z,14.60
2023-03-31T02:38:14.186Z,13.00
2023-03-31T02:40:42.367Z,11.10
2023-03-31T02:43:10.741Z,11.50
2023-03-31T02:45:42.284Z,13.40
2023-03-31T02:48:11.636Z,22.90
2023-03-31T02:51:01.835Z,25.40
2023-03-31T02:53:36.589Z,24.80
2023-03-31T02:56:12.700Z,23.10
2023-03-31T02:58:45.016Z,17.60
2023-03-31T03:01:25.522Z,12.90
2023-03-31T03:04:00.321Z,16.90
2023-03-31T03:06:53.563Z,16.40
2023-03-31T03:09:29.958Z,13.00
2023-03-31T03:12:12.291Z,9.80
2023-03-31T03:14:51.532Z,13.50
2023-03-31T03:17:25.999Z,13.50
2023-03-31T03:19:55.239Z,9.30
2023-03-31T03:22:23.475Z,14.40
2023-03-31T03:24:52.371Z,15.00
2023-03-31T03:27:22.456Z,12.20
2023-03-31T03:29:50.561Z,9.60
2023-03-31T03:32:18.382Z,9.50
2023-03-31T03:34:46.250Z,10.20
2023-03-31T03:37:14.173Z,9.30
2023-03-31T03:39:42.183Z,10.70
2023-03-31T03:42:10.346Z,8.80
2023-03-31T03:44:39.435Z,13.00
2023-03-31T03:47:07.372Z,17.30
2023-03-31T03:49:36.461Z,17.70
2023-03-31T03:52:05.045Z,13.60
2023-03-31T03:54:32.891Z,18.20
2023-03-31T03:57:00.815Z,13.70
2023-03-31T03:59:28.808Z,15.30
2023-03-31T04:01:57.119Z,16.50
2023-03-31T04:04:25.851Z,23.20
2023-03-31T04:06:53.654Z,29.50
2023-03-31T04:09:21.505Z,27.60
2023-03-31T04:11:49.407Z,23.00
2023-03-31T04:14:17.181Z,23.00
2023-03-31T04:16:47.114Z,15.70
2023-03-31T04:19:17.743Z,15.00
2023-03-31T04:21:45.719Z,12.40
2023-03-31T04:24:16.152Z,10.00
2023-03-31T04:26:43.957Z,9.10
2023-03-31T04:29:16.374Z,11.40
2023-03-31T04:31:44.495Z,9.10
2023-03-31T04:34:13.755Z,7.10
2023-03-31T04:36:49.080Z,10.20
2023-03-31T04:41:48.908Z,4.10
2023-03-31T04:44:17.011Z,4.20
2023-03-31T04:46:44.871Z,6.40
2023-03-31T04:49:15.952Z,8.10
2023-03-31T04:51:45.017Z,6.30
2023-03-31T04:54:16.521Z,7.40
2023-03-31T04:56:45.532Z,8.10
2023-03-31T04:59:13.473Z,8.40
2023-03-31T05:01:45.885Z,6.40
2023-03-31T05:04:13.995Z,7.00
2023-03-31T05:06:42.284Z,11.30
2023-03-31T05:09:10.224Z,6.00
2023-03-31T05:11:38.425Z,4.60
2023-03-31T05:14:06.784Z,6.70
2023-03-31T05:16:34.691Z,5.10
2023-03-31T05:19:02.868Z,5.90
2023-03-31T05:21:31.385Z,4.90
2023-03-31T05:23:59.266Z,4.80
2023-03-31T05:26:27.137Z,4.00
2023-03-31T05:28:55.109Z,3.90
2023-03-31T05:31:23.005Z,3.40
2023-03-31T05:33:51.975Z,3.50
2023-03-31T05:36:20.139Z,4.50
2023-03-31T05:38:48.417Z,2.90
2023-03-31T05:41:17.026Z,5.00
2023-03-31T05:43:45.008Z,5.90
2023-03-31T05:46:14.025Z,3.30
2023-03-31T05:48:42.021Z,2.80
2023-03-31T05:51:09.991Z,3.80
2023-03-31T05:53:38.592Z,3.20
2023-03-31T05:56:09.498Z,4.40
2023-03-31T05:58:37.699Z,4.00
2023-03-31T06:01:11.704Z,4.60
2023-03-31T06:03:41.574Z,9.20
2023-03-31T06:06:10.473Z,5.20
2023-03-31T06:08:47.997Z,7.30
2023-03-31T06:11:16.869Z,11.70
2023-03-31T06:13:45.074Z,10.60
2023-03-31T06:16:13.275Z,9.70
2023-03-31T06:18:41.295Z,6.70
2023-03-31T06:21:11.261Z,5.50
2023-03-31T06:23:39.659Z,5.30
2023-03-31T06:26:08.377Z,6.60
2023-03-31T06:28:36.373Z,8.30
2023-03-31T06:31:08.640Z,11.20
2023-03-31T06:33:36.887Z,7.60
2023-03-31T06:36:05.959Z,5.00
2023-03-31T06:38:34.254Z,6.40
2023-03-31T06:41:02.977Z,2.80
2023-03-31T06:43:31.084Z,3.60
2023-03-31T06:45:59.674Z,4.50
2023-03-31T06:48:27.796Z,3.50
2023-03-31T06:51:01.689Z,4.40
2023-03-31T06:53:29.630Z,4.80
2023-03-31T06:55:57.754Z,2.50
2023-03-31T06:58:28.396Z,6.00
2023-03-31T07:00:57.700Z,3.70
2023-03-31T07:03:25.891Z,6.60
2023-03-31T07:05:54.540Z,3.70
2023-03-31T07:08:23.060Z,3.00
2023-03-31T07:10:56.036Z,2.10
2023-03-31T07:13:25.807Z,4.20
2023-03-31T07:15:54.694Z,3.10
2023-03-31T07:18:26.444Z,2.30
2023-03-31T07:20:54.546Z,2.10
2023-03-31T07:23:22.865Z,3.80
2023-03-31T07:25:52.802Z,2.50
2023-03-31T07:28:20.728Z,2.10
2023-03-31T07:30:48.604Z,3.50
2023-03-31T07:33:17.530Z,2.80
2023-03-31T07:35:48.217Z,5.00
2023-03-31T07:38:24.610Z,3.10
2023-03-31T07:41:05.728Z,2.10
2023-03-31T07:43:36.774Z,3.60
2023-03-31T07:46:05.928Z,2.20
2023-03-31T07:48:34.434Z,2.80
2023-03-31T07:51:02.405Z,7.50
2023-03-31T07:53:34.388Z,3.00
2023-03-31T07:56:02.542Z,5.00
2023-03-31T07:58:31.017Z,3.70
2023-03-31T08:00:59.074Z,4.30
2023-03-31T08:03:27.848Z,3.70
2023-03-31T08:05:56.371Z,7.20
2023-03-31T08:08:24.208Z,9.80
2023-03-31T08:10:53.057Z,6.20
2023-03-31T08:13:22.035Z,3.40
2023-03-31T08:15:49.949Z,4.20
2023-03-31T08:18:17.782Z,3.50
2023-03-31T08:20:47.748Z,5.90
2023-03-31T08:23:17.370Z,10.10
2023-03-31T08:25:45.590Z,3.30
2023-03-31T08:28:14.197Z,4.50
2023-03-31T08:30:42.241Z,2.90
2023-03-31T08:33:12.384Z,3.60
2023-03-31T08:35:40.486Z,5.90
2023-03-31T08:38:08.319Z,2.70
2023-03-31T08:40:36.093Z,2.60
2023-03-31T08:43:09.035Z,15.10
2023-03-31T08:45:39.248Z,3.30
2023-03-31T08:48:11.300Z,2.50
2023-03-31T08:50:42.717Z,7.10
2023-03-31T08:53:19.691Z,3.00
2023-03-31T08:55:49.043Z,2.40
2023-03-31T08:58:19.961Z,2.20
2023-03-31T09:00:51.749Z,6.40
2023-03-31T09:03:40.826Z,3.70
2023-03-31T09:06:11.178Z,2.90
2023-03-31T09:08:39.671Z,3.80
2023-03-31T09:11:08.521Z,3.80
2023-03-31T09:13:36.343Z,2.90
2023-03-31T09:16:05.033Z,4.20
2023-03-31T09:18:36.708Z,3.20
2023-03-31T09:21:12.704Z,2.90
2023-03-31T09:23:50.071Z,3.80
2023-03-31T09:26:23.394Z,4.50
2023-03-31T09:28:51.200Z,6.80
2023-03-31T09:31:19.981Z,2.60
2023-03-31T09:33:48.917Z,4.40
2023-03-31T09:36:17.503Z,3.10
2023-03-31T09:38:46.736Z,5.40
2023-03-31T09:41:15.025Z,3.10
2023-03-31T09:43:43.400Z,3.90
2023-03-31T09:46:19.255Z,14.90
2023-03-31T09:49:06.281Z,6.50
2023-03-31T09:51:34.758Z,2.90
2023-03-31T09:54:21.296Z,3.10
2023-03-31T09:56:50.613Z,4.00
2023-03-31T09:59:30.590Z,3.30
2023-03-31T10:02:00.508Z,19.90
2023-03-31T10:04:30.033Z,4.10
2023-03-31T10:07:00.103Z,3.80
2023-03-31T10:09:31.960Z,3.80
2023-03-31T10:12:02.634Z,7.40
2023-03-31T10:14:45.671Z,5.00
2023-03-31T10:17:17.368Z,4.80
2023-03-31T10:19:51.786Z,3.40
2023-03-31T10:22:22.798Z,7.90
2023-03-31T10:24:51.440Z,6.50
2023-03-31T10:27:25.803Z,9.40
2023-03-31T10:29:54.524Z,6.50
2023-03-31T10:32:24.491Z,7.20
2023-03-31T10:34:53.162Z,5.70
2023-03-31T10:37:22.629Z,7.90
2023-03-31T10:39:56.938Z,6.80
2023-03-31T10:42:24.743Z,11.10
2023-03-31T10:45:10.007Z,12.70
2023-03-31T10:47:38.905Z,11.10
2023-03-31T10:50:12.952Z,12.80
2023-03-31T10:52:45.948Z,8.00
2023-03-31T10:55:14.831Z,6.20
2023-03-31T10:57:54.136Z,16.20
2023-03-31T11:00:27.905Z,9.90
2023-03-31T11:02:56.672Z,9.40
2023-03-31T11:05:37.096Z,10.40
2023-03-31T11:08:24.163Z,4.30
2023-03-31T11:10:55.145Z,6.40
2023-03-31T11:13:32.231Z,9.90
2023-03-31T11:16:03.661Z,6.40
2023-03-31T11:18:47.978Z,4.60
2023-03-31T11:21:22.161Z,3.30
2023-03-31T11:23:53.871Z,6.50
2023-03-31T11:26:29.228Z,6.50
2023-03-31T11:29:01.604Z,2.20
2023-03-31T11:31:42.234Z,6.10
2023-03-31T11:34:20.116Z,5.60
2023-03-31T11:37:09.025Z,3.20
2023-03-31T11:39:40.817Z,4.40
2023-03-31T11:42:35.478Z,4.30
2023-03-31T11:48:30.630Z,8.70
2023-03-31T11:50:57.903Z,4.20
2023-03-31T11:53:27.750Z,3.70
2023-03-31T11:55:54.732Z,2.10
2023-03-31T11:58:57.463Z,5.10
2023-03-31T12:01:42.473Z,2.70
2023-03-31T12:04:38.810Z,5.30
2023-03-31T12:07:19.424Z,4.60
2023-03-31T12:10:05.146Z,7.00
2023-03-31T12:12:35.242Z,4.60
2023-03-31T12:15:25.457Z,5.80
2023-03-31T12:18:00.350Z,2.60
2023-03-31T12:20:33.800Z,2.90
2023-03-31T12:23:01.334Z,3.50
2023-03-31T12:25:38.983Z,5.60
2023-03-31T12:28:05.823Z,2.50
2023-03-31T12:30:38.558Z,3.20
2023-03-31T12:33:06.832Z,3.50
2023-03-31T12:35:33.419Z,3.70
2023-03-31T12:38:02.879Z,2.10
2023-03-31T12:40:35.305Z,6.70
2023-03-31T12:43:07.877Z,3.10
2023-03-31T12:45:51.623Z,2.80
2023-03-31T12:48:34.433Z,3.60
2023-03-31T12:51:11.774Z,4.40
2023-03-31T12:53:56.302Z,6.40
2023-03-31T12:56:22.851Z,4.20
2023-03-31T12:58:49.449Z,3.80
2023-03-31T13:01:22.897Z,1.60
2023-03-31T13:04:26.100Z,3.30
2023-03-31T13:06:54.315Z,4.20
2023-03-31T13:09:51.531Z,4.30
2023-03-31T13:12:22.875Z,6.70
2023-03-31T13:14:52.878Z,3.60
2023-03-31T13:17:22.420Z,3.00
2023-03-31T13:19:49.037Z,3.20
2023-03-31T13:22:35.851Z,2.20
2023-03-31T13:25:37.261Z,2.50
2023-03-31T13:28:14.801Z,2.80
2023-03-31T13:30:47.010Z,2.30
2023-03-31T13:33:28.051Z,2.50
2023-03-31T13:36:16.900Z,4.90
2023-03-31T13:39:05.737Z,2.60
2023-03-31T13:41:51.670Z,2.40
2023-03-31T13:44:56.074Z,2.30
2023-03-31T13:47:58.307Z,3.00
2023-03-31T13:50:53.073Z,4.00
2023-03-31T13:53:47.691Z,4.30
2023-03-31T13:56:45.089Z,3.20
2023-03-31T13:59:46.285Z,4.70
2023-03-31T14:02:47.444Z,2.10
2023-03-31T14:05:33.280Z,2.20
2023-03-31T14:08:17.726Z,2.90
2023-03-31T14:10:45.177Z,3.20
2023-03-31T14:16:02.958Z,2.40
2023-03-31T14:18:33.481Z,3.40
2023-03-31T14:21:29.788Z,4.60
2023-03-31T14:24:32.827Z,3.90
2023-03-31T14:27:18.424Z,2.90
2023-03-31T14:30:03.160Z,4.10
2023-03-31T14:32:56.247Z,4.20
2023-03-31T14:35:44.438Z,5.20
2023-03-31T14:38:14.089Z,3.30
2023-03-31T14:40:46.525Z,3.40
2023-03-31T14:43:21.369Z,2.60
2023-03-31T14:46:00.769Z,4.00
2023-03-31T14:48:28.761Z,3.80
2023-03-31T14:51:00.872Z,3.80
2023-03-31T14:53:28.315Z,5.30
2023-03-31T14:56:01.009Z,4.30
2023-03-31T14:58:34.168Z,6.70
2023-03-31T15:01:02.797Z,5.00
2023-03-31T15:03:36.758Z,4.40
2023-03-31T15:06:04.190Z,3.70
2023-03-31T15:08:31.370Z,4.70
2023-03-31T15:11:09.756Z,5.10
2023-03-31T15:13:56.747Z,4.40
2023-03-31T15:16:42.256Z,5.30
2023-03-31T15:19:20.301Z,4.20
2023-03-31T15:21:56.632Z,6.90
2023-03-31T15:24:23.309Z,5.60
2023-03-31T15:27:29.814Z,5.70
2023-03-31T15:30:01.884Z,8.30
2023-03-31T15:32:30.576Z,6.40
2023-03-31T15:35:02.421Z,6.70
2023-03-31T15:37:39.916Z,7.30
2023-03-31T15:40:27.323Z,5.50
2023-03-31T15:43:13.473Z,5.10
2023-03-31T15:45:54.154Z,6.30
2023-03-31T15:48:35.912Z,7.20
2023-03-31T15:51:25.623Z,6.20
2023-03-31T15:53:53.888Z,6.50
2023-03-31T15:56:43.446Z,8.00
2023-03-31T15:59:33.754Z,4.60
2023-03-31T16:02:05.328Z,4.50
2023-03-31T16:04:32.102Z,7.40
2023-03-31T16:07:07.579Z,5.80
2023-03-31T16:09:45.783Z,8.30
2023-03-31T16:12:19.297Z,8.00
2023-03-31T16:14:59.274Z,7.30
2023-03-31T16:17:28.028Z,9.20
2023-03-31T16:20:06.782Z,11.00
2023-03-31T16:22:36.942Z,10.50
2023-03-31T16:25:08.649Z,8.10
2023-03-31T16:27:41.090Z,6.90
2023-03-31T16:30:11.813Z,6.00
2023-03-31T16:33:02.659Z,6.70
2023-03-31T16:35:37.781Z,7.90
2023-03-31T16:38:05.564Z,11.00
2023-03-31T16:40:41.277Z,5.10
2023-03-31T16:43:13.601Z,7.10
2023-03-31T16:45:42.515Z,8.20
2023-03-31T16:48:16.425Z,6.10
2023-03-31T16:50:50.728Z,7.80
2023-03-31T16:53:19.218Z,9.30
2023-03-31T16:55:45.782Z,11.00
2023-03-31T16:58:12.306Z,11.70
2023-03-31T17:00:39.935Z,8.60
2023-03-31T17:03:07.640Z,11.50
2023-03-31T17:05:42.554Z,9.00
2023-03-31T17:10:36.902Z,11.30
2023-03-31T17:13:04.727Z,11.60
2023-03-31T17:15:31.424Z,11.20
2023-03-31T17:18:00.228Z,12.00
2023-03-31T17:20:27.774Z,12.40
2023-03-31T17:22:54.312Z,9.70
2023-03-31T17:25:21.348Z,11.00
2023-03-31T17:27:48.051Z,12.60
2023-03-31T17:30:15.936Z,12.10
2023-03-31T17:32:43.094Z,10.50
2023-03-31T17:35:09.733Z,13.00
2023-03-31T17:37:36.741Z,12.50
2023-03-31T17:40:04.539Z,10.60
2023-03-31T17:42:31.182Z,12.60
2023-03-31T17:44:57.915Z,8.80
2023-03-31T17:47:24.662Z,14.40
2023-03-31T17:49:51.445Z,12.90
2023-03-31T17:52:18.118Z,11.80
2023-03-31T17:54:47.459Z,14.60
2023-03-31T17:57:16.147Z,15.00
2023-03-31T17:59:42.763Z,9.60
2023-03-31T18:02:12.462Z,12.30
2023-03-31T18:04:39.007Z,15.20
2023-03-31T18:07:06.829Z,12.70
2023-03-31T18:09:33.580Z,12.40
2023-03-31T18:12:00.029Z,14.80
2023-03-31T18:14:27.124Z,15.50
2023-03-31T18:16:53.814Z,14.30
2023-03-31T18:19:20.264Z,14.60
2023-03-31T18:21:48.146Z,18.90
2023-03-31T18:24:14.704Z,15.60
2023-03-31T18:26:41.875Z,17.80
2023-03-31T18:29:08.720Z,13.80
2023-03-31T18:31:35.401Z,15.30
2023-03-31T18:34:01.891Z,17.20
2023-03-31T18:36:29.093Z,19.30
2023-03-31T18:38:55.789Z,14.90
2023-03-31T18:41:22.501Z,17.30
2023-03-31T18:43:51.857Z,16.10
2023-03-31T18:46:18.865Z,16.60
2023-03-31T18:48:46.800Z,16.30
2023-03-31T18:51:14.251Z,22.00
2023-03-31T18:53:41.660Z,20.70
2023-03-31T18:56:08.753Z,16.20
2023-03-31T18:58:36.920Z,18.90
2023-03-31T19:01:03.356Z,16.10
2023-03-31T19:03:37.445Z,14.90
2023-03-31T19:06:10.697Z,15.70
2023-03-31T19:08:38.466Z,19.30
2023-03-31T19:11:15.514Z,17.50
2023-03-31T19:13:42.517Z,14.10
2023-03-31T19:16:28.926Z,17.90
2023-03-31T19:19:03.306Z,15.50
2023-03-31T19:21:31.892Z,16.50
2023-03-31T19:23:58.376Z,17.90
2023-03-31T19:26:28.440Z,17.80
2023-03-31T19:28:56.278Z,16.20
2023-03-31T19:31:22.866Z,18.20
2023-03-31T19:33:51.470Z,16.20
2023-03-31T19:36:18.032Z,15.40
2023-03-31T19:38:44.662Z,16.30
2023-03-31T19:41:11.229Z,15.70
2023-03-31T19:43:37.840Z,17.40
2023-03-31T19:46:04.836Z,17.70
2023-03-31T19:48:33.052Z,15.80
2023-03-31T19:51:07.864Z,22.20
2023-03-31T19:53:36.731Z,17.60
2023-03-31T19:56:08.319Z,15.60
2023-03-31T19:58:35.788Z,20.50
2023-03-31T20:01:07.489Z,14.10
2023-03-31T20:03:36.101Z,15.50
2023-03-31T20:06:07.631Z,13.10
2023-03-31T20:08:34.929Z,16.10
2023-03-31T20:11:03.228Z,16.50
2023-03-31T20:13:37.688Z,17.00
2023-03-31T20:16:06.842Z,13.00
2023-03-31T20:18:36.065Z,16.60
2023-03-31T20:21:07.377Z,16.20
2023-03-31T20:23:38.955Z,13.80
2023-03-31T20:26:08.371Z,15.40
2023-03-31T20:28:36.265Z,13.30
2023-03-31T20:31:10.995Z,15.80
2023-03-31T20:33:38.642Z,16.10
2023-03-31T20:36:07.114Z,18.00
2023-03-31T20:38:37.776Z,13.40
2023-03-31T20:41:04.940Z,12.20
2023-03-31T20:43:33.209Z,13.90
2023-03-31T20:46:06.797Z,16.10
2023-03-31T20:48:39.090Z,14.80
2023-03-31T20:51:07.089Z,16.50
2023-03-31T20:53:40.972Z,18.00
2023-03-31T20:56:12.314Z,15.60
2023-03-31T20:58:43.154Z,16.00
2023-03-31T21:01:11.222Z,14.50
2023-03-31T21:03:40.648Z,13.40
2023-03-31T21:06:11.340Z,14.60
2023-03-31T21:08:40.064Z,15.80
2023-03-31T21:11:09.310Z,19.40
2023-03-31T21:13:36.615Z,16.20
2023-03-31T21:16:04.065Z,15.60
2023-03-31T21:18:32.191Z,13.10
2023-03-31T21:21:00.714Z,14.40
2023-03-31T21:23:33.069Z,15.70
2023-03-31T21:26:01.014Z,12.70
2023-03-31T21:28:29.195Z,14.70
2023-03-31T21:31:00.014Z,15.40
2023-03-31T21:33:27.215Z,13.60
2023-03-31T21:35:53.753Z,14.50
2023-03-31T21:38:23.314Z,13.50
2023-03-31T21:40:51.613Z,12.60
2023-03-31T21:43:18.917Z,13.10
2023-03-31T21:45:45.998Z,12.80
2023-03-31T21:48:13.721Z,12.80
2023-03-31T21:50:40.585Z,14.80
2023-03-31T21:53:07.550Z,12.10
2023-03-31T21:55:35.163Z,13.70
2023-03-31T21:58:03.959Z,13.30
2023-03-31T22:00:31.416Z,12.50
2023-03-31T22:03:16.452Z,12.70
2023-03-31T22:05:45.054Z,16.70
2023-03-31T22:08:11.956Z,13.40
2023-03-31T22:10:49.791Z,14.50
2023-03-31T22:13:17.681Z,16.30
2023-03-31T22:15:44.399Z,16.00
2023-03-31T22:18:17.788Z,15.10
2023-03-31T22:20:45.218Z,13.90
2023-03-31T22:23:12.167Z,13.90
2023-03-31T22:25:39.031Z,19.00
2023-03-31T22:28:07.092Z,18.00
2023-03-31T22:30:35.065Z,16.50
2023-03-31T22:33:03.363Z,15.40
2023-03-31T22:35:30.031Z,16.00
2023-03-31T22:37:56.549Z,14.20
2023-03-31T22:40:23.339Z,16.40
2023-03-31T22:42:50.255Z,15.00
2023-03-31T22:45:16.917Z,15.50
2023-03-31T22:47:43.664Z,14.80
2023-03-31T22:50:11.415Z,16.70
2023-03-31T22:52:38.832Z,13.10
2023-03-31T22:55:05.755Z,16.40
2023-03-31T22:57:32.857Z,16.10
2023-03-31T23:00:00.150Z,15.30
2023-03-31T23:02:26.750Z,14.00
2023-03-31T23:04:53.378Z,15.80
2023-03-31T23:07:21.235Z,14.30
2023-03-31T23:09:48.210Z,14.70
2023-03-31T23:12:14.818Z,16.60
2023-03-31T23:14:42.220Z,17.60
2023-03-31T23:17:08.690Z,19.90
2023-03-31T23:19:37.090Z,17.90
2023-03-31T23:22:03.784Z,16.10
2023-03-31T23:24:30.352Z,18.90
2023-03-31T23:26:57.953Z,17.30
2023-03-31T23:29:25.216Z,17.00
2023-03-31T23:31:51.722Z,16.40
2023-03-31T23:34:18.507Z,13.90
2023-03-31T23:39:47.625Z,16.10
2023-03-31T23:42:52.128Z,15.10
2023-03-31T23:45:20.086Z,14.30
2023-03-31T23:47:48.446Z,17.10
2023-03-31T23:50:16.297Z,13.50
2023-03-31T23:52:45.722Z,14.80
2023-03-31T23:55:13.861Z,13.00
2023-03-31T23:57:42.540Z,14.10
